Etusivu
METAR-TAF:

METAR-TAF

Lentoasemat :

Győr, Unkari

Leveyspiiri: 47-37-28N, Pituuspiiri: 017-48-49E, korkeus merenpinnasta: 129 m

Tämänhetkinen sää

Tämä raportti tehtiin 42 minuuttia sitten, kello 16.45 UTC
Tuuli 9 kn kaakosta
Lämpötila -1°C
Kosteus 93%
Ilmanpaine 1028 hPa
Näkyvyys: 5000 m
Pilvistä 600 ft:n korkeudessa

METAR: LHPR 051645Z 13009KT 5000 OVC006 M01/M02 Q1028

Aika: 18:27 (17:27 UTC)

Sääennuste

Tämä raportti tehtiin 3 tuntia ja 12 minuuttia sitten, kello 14.15 UTC
Ennuste voimassa 05. päivästä klo 15 UTC - 05. päivään klo 24 UTC
Tuuli 9 kn idästä/kaakosta
Näkyvyys: 5000 m
Pilvistä 500 ft:n korkeudessa
utua
Todennäköisyys 40%
05. päivästä klo 19 UTC - 05. päivään klo 24 UTC
Näkyvyys: 1500 m
utua

TAF: LHPR 051415Z 0515/0524 12009KT 5000 BR OVC005 PROB40 0519/0524 1500 FZBCFG BR

Säähavainnot ja -ennusteet yli 4000 lentoasemalta (METAR- ja TAF-raportit).

Käytössä olevat sääasemat on merkitty karttaan keltaisilla ja punaisilla pisteillä.

Aseta hiiri pisteen päälle nähdäksesi sääaseman nimen.

Klikkaa sitten nähdäksesi säähavainnot ja -ennusteet.

Kartan vaihtaminen: klikkaa mustalla rastilla varustettuja vihreitä pisteitä, niin voit zoomata sisään; viivalla varustettua vihreää pistettä, niin voit zoomata ulos tai vihreitä nuolia, niin pääset viereisille kartoille.


METAR-TAF: